Time;durP1;ratioP1;P1;durP2;ratioP2;P2;SDS_P1;SDS_P2;PMS_P1;PMS_P2;Temp;Humidity;BMP_temperature;BMP_pressure;BME280_temperature;BME280_humidity;BME280_pressure;Samples;Min_cycle;Max_cycle;Signal;HPM_P1;HPM_P2
2024/02/01 00:00:23;;;;;;;0.00;0.00;;;;;;;10.21;100.00;101563.00;6079429;23;20007;-79
2024/02/01 00:02:48;;;;;;;0.00;0.00;;;;;;;10.06;100.00;101524.34;6131673;23;20006;-79
2024/02/01 00:05:14;;;;;;;0.00;0.00;;;;;;;10.06;100.00;101524.34;6133408;23;20124;-77
2024/02/01 00:07:43;;;;;;;0.00;0.00;;;;;;;10.10;100.00;101541.94;6108369;23;20010;-79
2024/02/01 00:10:12;;;;;;;0.00;0.00;;;;;;;10.15;100.00;101544.81;6132082;23;20037;-80
2024/02/01 00:12:37;;;;;;;0.00;0.00;;;;;;;10.18;100.00;101560.75;6082355;23;20018;-79
2024/02/01 00:15:13;;;;;;;0.00;0.00;;;;;;;10.08;100.00;101544.91;6081887;23;20010;-79
2024/02/01 00:17:41;;;;;;;0.00;0.00;;;;;;;10.15;100.00;101566.69;6107853;23;20014;-79
2024/02/01 00:20:07;;;;;;;0.00;0.00;;;;;;;10.12;100.00;101567.97;6086236;23;20017;-79
2024/02/01 00:22:35;;;;;;;0.00;0.00;;;;;;;10.06;100.00;101557.16;6105822;23;20723;-78
2024/02/01 00:25:01;;;;;;;0.00;0.00;;;;;;;10.08;100.00;101555.84;6105564;23;20172;-78
2024/02/01 00:27:29;;;;;;;0.00;0.00;;;;;;;10.04;100.00;101553.81;6103962;23;20093;-78
2024/02/01 00:29:57;;;;;;;0.00;0.00;;;;;;;10.03;100.00;101554.88;6130623;23;20437;-78
2024/02/01 00:32:22;;;;;;;0.10;0.10;;;;;;;10.01;100.00;101555.13;6081411;23;20010;-78
2024/02/01 00:34:48;;;;;;;0.00;0.00;;;;;;;9.96;100.00;101542.16;6082251;23;20004;-78
2024/02/01 00:37:18;;;;;;;0.00;0.00;;;;;;;10.10;100.00;101577.47;6080044;23;20429;-78
2024/02/01 00:39:47;;;;;;;0.00;0.00;;;;;;;9.98;100.00;101555.59;6106148;23;20515;-78
2024/02/01 00:42:12;;;;;;;0.00;0.00;;;;;;;10.12;100.00;101575.34;6104677;23;20010;-79
2024/02/01 00:44:38;;;;;;;0.00;0.00;;;;;;;9.98;100.00;101549.31;6106310;23;20009;-80
2024/02/01 00:47:04;;;;;;;0.00;0.00;;;;;;;9.92;100.00;101535.50;6082823;23;20014;-78
2024/02/01 00:49:53;;;;;;;0.00;0.00;;;;;;;9.82;100.00;101518.03;6105641;23;20010;-80
2024/02/01 00:52:19;;;;;;;0.00;0.00;;;;;;;9.98;100.00;101541.94;6105026;23;20013;-79
2024/02/01 00:54:48;;;;;;;0.00;0.00;;;;;;;9.93;100.00;101541.81;6134712;23;20021;-79
2024/02/01 00:57:13;;;;;;;0.00;0.00;;;;;;;9.91;100.00;101544.75;6128415;23;20646;-80
2024/02/01 00:59:39;;;;;;;0.00;0.00;;;;;;;10.18;100.00;101588.06;6132227;23;19998;-78
2024/02/01 01:02:06;;;;;;;0.00;0.00;;;;;;;10.13;100.00;101568.81;6106643;23;20036;-79
2024/02/01 01:04:31;;;;;;;0.00;0.00;;;;;;;10.13;100.00;101568.81;6133402;23;20013;-79
2024/02/01 01:06:57;;;;;;;0.00;0.00;;;;;;;10.06;100.00;101557.16;6105995;23;20069;-79
2024/02/01 01:09:22;;;;;;;0.00;0.00;;;;;;;10.22;100.00;101588.44;6102268;23;20014;-79
2024/02/01 01:11:48;;;;;;;0.00;0.00;;;;;;;10.20;100.00;101591.41;6105412;23;20021;-79
2024/02/01 01:14:13;;;;;;;0.00;0.00;;;;;;;10.20;100.00;101599.59;6125020;23;20018;-76
2024/02/01 01:16:39;;;;;;;0.00;0.00;;;;;;;10.16;100.00;101590.19;6103481;23;20025;-76
2024/02/01 01:19:04;;;;;;;0.00;0.00;;;;;;;10.17;100.00;101594.59;6125210;23;20351;-77
2024/02/01 01:21:30;;;;;;;0.00;0.00;;;;;;;10.21;100.00;101598.53;6076603;23;20448;-77
2024/02/01 01:23:55;;;;;;;0.00;0.00;;;;;;;10.18;100.00;101606.38;6099830;23;20009;-76
2024/02/01 01:26:22;;;;;;;0.10;0.10;;;;;;;10.14;100.00;101597.81;6099643;23;20021;-79
2024/02/01 01:28:55;;;;;;;0.00;0.00;;;;;;;10.21;100.00;101609.47;6101094;23;20025;-78
2024/02/01 01:31:23;;;;;;;0.00;0.00;;;;;;;10.21;100.00;101614.13;6077309;23;20016;-78
2024/02/01 01:33:48;;;;;;;0.00;0.00;;;;;;;10.20;100.00;101617.91;6101142;23;20056;-78
2024/02/01 01:36:14;;;;;;;0.00;0.00;;;;;;;10.15;100.00;101621.34;6103044;23;20006;-78
2024/02/01 01:38:39;;;;;;;0.00;0.00;;;;;;;10.15;100.00;101618.63;6125394;23;20006;-78
2024/02/01 01:41:07;;;;;;;0.00;0.00;;;;;;;10.19;100.00;101618.97;6106244;23;20013;-79
2024/02/01 01:43:42;;;;;;;0.00;0.00;;;;;;;10.19;100.00;101624.44;6129578;23;20135;-79
2024/02/01 01:46:07;;;;;;;0.00;0.00;;;;;;;10.14;100.00;101630.59;6105429;23;20010;-78
2024/02/01 01:48:33;;;;;;;0.00;0.00;;;;;;;10.16;100.00;101630.38;6128317;23;20081;-80
2024/02/01 01:50:59;;;;;;;0.00;0.00;;;;;;;10.11;100.00;101629.16;6080431;23;20020;-78
2024/02/01 01:53:27;;;;;;;0.00;0.00;;;;;;;10.14;100.00;101641.53;6081061;23;20014;-79
2024/02/01 01:55:55;;;;;;;0.00;0.00;;;;;;;10.12;100.00;101649.97;6123502;23;20017;-80
2024/02/01 01:58:22;;;;;;;0.00;0.00;;;;;;;10.11;100.00;101647.47;6054352;23;20481;-79
2024/02/01 02:00:48;;;;;;;0.00;0.00;;;;;;;10.11;100.00;101650.22;6130205;23;20001;-79
2024/02/01 02:03:14;;;;;;;0.00;0.00;;;;;;;9.96;100.00;101626.06;6102715;23;20146;-79
2024/02/01 02:05:40;;;;;;;0.00;0.00;;;;;;;9.89;100.00;101628.88;6102535;23;20118;-79
2024/02/01 02:08:07;;;;;;;0.00;0.00;;;;;;;9.86;100.00;101650.38;6079394;23;20425;-81
2024/02/01 02:10:38;;;;;;;0.00;0.00;;;;;;;9.57;100.00;101636.44;6101427;23;20009;-78
2024/02/01 02:13:03;;;;;;;0.00;0.00;;;;;;;9.46;100.00;101640.78;6129739;23;20076;-78
2024/02/01 02:15:33;;;;;;;0.00;0.00;;;;;;;9.25;100.00;101645.63;6102152;23;20464;-78
2024/02/01 02:17:59;;;;;;;0.00;0.00;;;;;;;9.00;100.00;101628.50;6104910;23;20016;-80
2024/02/01 02:20:26;;;;;;;0.00;0.00;;;;;;;8.97;100.00;101642.59;6079240;23;19994;-79
2024/02/01 02:22:54;;;;;;;0.00;0.00;;;;;;;8.77;100.00;101638.16;6122465;23;20046;-79
2024/02/01 02:25:20;;;;;;;0.00;0.00;;;;;;;8.66;100.00;101638.88;6051992;23;20038;-79
2024/02/01 02:28:01;;;;;;;0.00;0.00;;;;;;;8.64;100.00;101650.00;6076295;23;20002;-78
2024/02/01 02:30:30;;;;;;;0.00;0.00;;;;;;;8.67;100.00;101660.50;6071679;23;20456;-78
2024/02/01 02:32:56;;;;;;;0.00;0.00;;;;;;;8.68;100.00;101661.31;6076212;23;20009;-78
2024/02/01 02:35:21;;;;;;;0.00;0.00;;;;;;;8.69;100.00;101663.00;6071761;23;20010;-79
2024/02/01 02:37:48;;;;;;;0.00;0.00;;;;;;;8.78;100.00;101678.03;6076019;23;20435;-78
2024/02/01 02:40:15;;;;;;;0.00;0.00;;;;;;;8.79;100.00;101674.25;6073051;23;20058;-75
2024/02/01 02:42:41;;;;;;;0.00;0.00;;;;;;;8.79;100.00;101679.69;6070412;23;20041;-79
2024/02/01 02:45:06;;;;;;;0.00;0.00;;;;;;;8.84;100.00;101688.03;6056243;23;20014;-79
2024/02/01 02:47:32;;;;;;;0.10;0.10;;;;;;;8.91;100.00;101687.97;6082408;23;20048;-79
2024/02/01 02:49:57;;;;;;;0.00;0.00;;;;;;;8.81;100.00;101691.22;6080266;23;20018;-79
2024/02/01 02:52:23;;;;;;;0.00;0.00;;;;;;;8.63;100.00;101692.00;6035449;23;20090;-81
2024/02/01 02:54:48;;;;;;;0.00;0.00;;;;;;;8.41;100.00;101688.78;6084203;23;20093;-79
2024/02/01 02:57:14;;;;;;;0.00;0.00;;;;;;;8.24;100.00;101693.91;6049432;23;20058;-78
2024/02/01 02:59:39;;;;;;;0.00;0.00;;;;;;;8.06;100.00;101686.50;6100875;23;20083;-78
2024/02/01 03:02:07;;;;;;;0.00;0.00;;;;;;;7.99;100.00;101678.34;6050243;23;20089;-79
2024/02/01 03:04:36;;;;;;;0.00;0.00;;;;;;;8.13;100.00;101681.84;6028010;23;20093;-78
2024/02/01 03:07:02;;;;;;;0.00;0.00;;;;;;;8.46;100.00;101713.50;6099664;23;20040;-78
2024/02/01 03:09:27;;;;;;;0.00;0.00;;;;;;;8.62;100.00;101705.84;6073416;23;20030;-79
2024/02/01 03:11:53;;;;;;;0.00;0.00;;;;;;;8.78;100.00;101710.75;6073685;23;20411;-79
2024/02/01 03:14:18;;;;;;;0.00;0.00;;;;;;;8.74;100.00;101714.97;6075073;23;20044;-78
2024/02/01 03:16:44;;;;;;;0.08;0.08;;;;;;;8.56;100.00;101713.03;6056623;23;20026;-78
2024/02/01 03:19:11;;;;;;;0.00;0.00;;;;;;;8.33;100.00;101713.56;6099120;23;19990;-79
2024/02/01 03:21:37;;;;;;;0.00;0.00;;;;;;;8.25;100.00;101736.47;6109189;23;20010;-79
2024/02/01 03:24:03;;;;;;;0.00;0.00;;;;;;;8.21;100.00;101733.31;6101872;23;20002;-79
2024/02/01 03:26:40;;;;;;;0.00;0.00;;;;;;;8.25;100.00;101730.16;6054709;23;20722;-77
2024/02/01 03:29:05;;;;;;;0.00;0.00;;;;;;;8.39;100.00;101739.94;6059928;23;20002;-77
2024/02/01 03:31:34;;;;;;;0.00;0.00;;;;;;;8.48;100.00;101755.00;6105633;23;20048;-79
2024/02/01 03:34:05;;;;;;;0.00;0.00;;;;;;;8.43;100.00;101730.28;6082207;23;20032;-78
2024/02/01 03:36:34;;;;;;;0.00;0.00;;;;;;;8.40;100.00;101730.72;6081026;23;20006;-80
2024/02/01 03:39:22;;;;;;;0.00;0.00;;;;;;;8.43;100.00;101754.81;6056852;23;20426;-79
2024/02/01 03:41:51;;;;;;;0.00;0.00;;;;;;;8.41;100.00;101754.19;6082936;23;20013;-77
2024/02/01 03:44:24;;;;;;;0.00;0.00;;;;;;;8.26;100.00;101746.28;6103533;23;20013;-78
2024/02/01 03:46:54;;;;;;;0.00;0.00;;;;;;;8.07;100.00;101749.97;6130580;23;20056;-79
2024/02/01 03:49:27;;;;;;;0.00;0.00;;;;;;;7.93;100.00;101762.81;6058517;23;20746;-78
2024/02/01 03:51:55;;;;;;;0.00;0.00;;;;;;;7.88;100.00;101787.13;6107210;23;20463;-76
2024/02/01 03:54:21;;;;;;;0.00;0.00;;;;;;;7.60;100.00;101772.75;6081020;23;20025;-78
2024/02/01 03:56:46;;;;;;;0.00;0.00;;;;;;;7.41;100.00;101788.06;6103656;23;20464;-78
2024/02/01 03:59:12;;;;;;;0.00;0.00;;;;;;;7.15;100.00;101778.91;6056566;23;20328;-77
2024/02/01 04:01:41;;;;;;;0.10;0.10;;;;;;;6.91;100.00;101782.25;6081343;23;20009;-79
2024/02/01 04:04:07;;;;;;;0.00;0.00;;;;;;;6.56;100.00;101764.22;6128592;23;20058;-77
2024/02/01 04:06:36;;;;;;;0.00;0.00;;;;;;;6.39;100.00;101785.50;6082645;23;20017;-77
2024/02/01 04:09:09;;;;;;;0.00;0.00;;;;;;;6.31;100.00;101810.16;6108234;23;20009;-77
2024/02/01 04:11:35;;;;;;;0.00;0.00;;;;;;;6.07;100.00;101800.63;6105550;23;20052;-78
2024/02/01 04:14:00;;;;;;;0.00;0.00;;;;;;;6.00;100.00;101816.91;6082559;23;20421;-78
2024/02/01 04:16:27;;;;;;;0.10;0.10;;;;;;;5.93;100.00;101835.84;6058779;23;20409;-77
2024/02/01 04:18:55;;;;;;;0.00;0.00;;;;;;;5.70;100.00;101824.44;6084292;23;20006;-79
2024/02/01 04:21:21;;;;;;;0.00;0.00;;;;;;;5.69;100.00;101841.75;6081439;23;20017;-79
2024/02/01 04:23:46;;;;;;;0.00;0.00;;;;;;;5.56;100.00;101840.63;6082370;23;20021;-79
2024/02/01 04:26:15;;;;;;;0.10;0.10;;;;;;;5.52;100.00;101847.50;6130200;23;20014;-78
2024/02/01 04:28:41;;;;;;;0.00;0.00;;;;;;;5.35;100.00;101837.97;6080438;23;20014;-79
2024/02/01 04:31:08;;;;;;;0.00;0.00;;;;;;;5.32;100.00;101841.91;6104702;23;19998;-79
2024/02/01 04:33:33;;;;;;;0.10;0.10;;;;;;;5.26;100.00;101856.25;6105168;23;20002;-76
2024/02/01 04:35:59;;;;;;;0.00;0.00;;;;;;;5.18;100.00;101848.25;6107280;23;20013;-74
2024/02/01 04:38:25;;;;;;;0.03;0.03;;;;;;;5.10;100.00;101845.69;6079440;23;20014;-77
2024/02/01 04:40:51;;;;;;;0.00;0.00;;;;;;;5.00;100.00;101844.13;6106573;23;20010;-80
2024/02/01 04:43:19;;;;;;;0.00;0.00;;;;;;;4.92;100.00;101844.28;6107741;23;20426;-78
2024/02/01 04:45:45;;;;;;;0.00;0.00;;;;;;;4.81;100.00;101847.50;6106504;23;20449;-77
2024/02/01 04:48:10;;;;;;;0.00;0.00;;;;;;;4.69;100.00;101848.00;6106940;23;20092;-77
2024/02/01 04:50:37;;;;;;;0.00;0.00;;;;;;;4.45;100.00;101826.66;6085461;23;20009;-79
2024/02/01 04:53:06;;;;;;;0.00;0.00;;;;;;;4.57;100.00;101862.22;6108770;23;20002;-78
2024/02/01 04:55:33;;;;;;;0.00;0.00;;;;;;;4.39;100.00;101865.34;6118085;23;20002;-78
2024/02/01 04:57:59;;;;;;;0.00;0.00;;;;;;;4.20;100.00;101856.78;6117171;23;20010;-78
2024/02/01 05:00:26;;;;;;;0.00;0.00;;;;;;;4.21;100.00;101874.72;6113091;23;20001;-78
2024/02/01 05:02:52;;;;;;;0.00;0.00;;;;;;;4.12;100.00;101886.69;6131363;23;20014;-77
2024/02/01 05:05:20;;;;;;;0.00;0.00;;;;;;;4.05;100.00;101891.16;6113091;23;20014;-77
2024/02/01 05:07:46;;;;;;;0.00;0.00;;;;;;;4.02;100.00;101904.03;6135182;23;20058;-79
2024/02/01 05:10:12;;;;;;;0.00;0.00;;;;;;;3.97;100.00;101911.88;6107022;23;20084;-79
2024/02/01 05:12:39;;;;;;;0.00;0.00;;;;;;;3.91;100.00;101912.59;6132232;23;20017;-78
2024/02/01 05:15:07;;;;;;;0.00;0.00;;;;;;;3.77;100.00;101899.91;6131184;23;20036;-78
2024/02/01 05:17:33;;;;;;;0.00;0.00;;;;;;;3.79;100.00;101914.09;6106832;23;20017;-80
2024/02/01 05:19:59;;;;;;;0.00;0.00;;;;;;;3.74;100.00;101921.91;6108041;23;20008;-79
2024/02/01 05:22:26;;;;;;;0.00;0.00;;;;;;;3.66;100.00;101923.69;6109348;23;20032;-78
2024/02/01 05:24:51;;;;;;;0.10;0.10;;;;;;;3.64;100.00;101923.03;6081093;23;20093;-79
2024/02/01 05:27:17;;;;;;;0.00;0.00;;;;;;;3.63;100.00;101942.97;6081737;23;20062;-80
2024/02/01 05:29:49;;;;;;;0.00;0.00;;;;;;;3.59;100.00;101930.00;6081801;23;20028;-78
2024/02/01 05:32:15;;;;;;;0.00;0.00;;;;;;;3.53;100.00;101934.28;6103857;23;20020;-78
2024/02/01 05:34:41;;;;;;;0.00;0.00;;;;;;;3.49;100.00;101930.28;6105020;23;20025;-78
2024/02/01 05:37:08;;;;;;;0.00;0.00;;;;;;;3.55;100.00;101945.78;6106925;23;20010;-77
2024/02/01 05:39:34;;;;;;;0.00;0.00;;;;;;;3.49;100.00;101941.09;6104241;23;20053;-78
2024/02/01 05:42:06;;;;;;;0.10;0.10;;;;;;;3.39;100.00;101945.88;6080934;23;20357;-78
2024/02/01 05:44:33;;;;;;;0.00;0.00;;;;;;;3.47;100.00;101959.34;6127551;23;20056;-78
2024/02/01 05:46:59;;;;;;;0.00;0.00;;;;;;;3.42;100.00;101956.38;6127213;23;20020;-78
2024/02/01 05:49:28;;;;;;;0.00;0.00;;;;;;;3.26;100.00;101941.94;6129238;23;20033;-77
2024/02/01 05:51:59;;;;;;;0.00;0.00;;;;;;;3.36;100.00;101959.75;6102270;23;20010;-77
2024/02/01 05:54:27;;;;;;;0.00;0.00;;;;;;;3.26;100.00;101958.16;6127797;23;20005;-78
2024/02/01 05:56:52;;;;;;;0.00;0.00;;;;;;;3.22;100.00;101959.53;6056343;23;19994;-79
2024/02/01 05:59:19;;;;;;;0.00;0.00;;;;;;;3.18;100.00;101966.31;6105100;23;20006;-77
2024/02/01 06:01:46;;;;;;;0.00;0.00;;;;;;;3.22;100.00;101973.03;6079049;23;20433;-78
2024/02/01 06:04:14;;;;;;;0.00;0.00;;;;;;;3.21;100.00;101970.53;6101334;23;20017;-78
2024/02/01 06:06:44;;;;;;;0.00;0.00;;;;;;;3.17;100.00;101972.75;6104889;23;20337;-78
2024/02/01 06:09:13;;;;;;;0.00;0.00;;;;;;;2.99;100.00;101946.00;6125327;23;20002;-78
2024/02/01 06:11:43;;;;;;;0.00;0.00;;;;;;;3.02;100.00;101961.00;6129666;23;19997;-76
2024/02/01 06:14:09;;;;;;;0.00;0.00;;;;;;;3.02;100.00;101969.13;6078684;23;20101;-77
2024/02/01 06:16:35;;;;;;;0.10;0.10;;;;;;;2.90;100.00;101969.53;6131753;23;20068;-78
2024/02/01 06:19:00;;;;;;;0.10;0.10;;;;;;;2.88;100.00;101982.38;6101114;23;20116;-79
2024/02/01 06:21:26;;;;;;;0.10;0.10;;;;;;;2.80;100.00;101971.59;6104523;23;20005;-79
2024/02/01 06:23:52;;;;;;;0.10;0.10;;;;;;;2.76;100.00;101979.22;6104219;23;20024;-79
2024/02/01 06:26:25;;;;;;;0.00;0.00;;;;;;;2.72;100.00;101982.47;6107284;23;20077;-80
2024/02/01 06:28:56;;;;;;;0.00;0.00;;;;;;;2.71;100.00;101996.97;6105373;23;20012;-79
2024/02/01 06:31:24;;;;;;;0.00;0.00;;;;;;;2.71;100.00;102010.50;6105976;23;20006;-79
2024/02/01 06:33:55;;;;;;;0.00;0.00;;;;;;;2.67;100.00;102004.56;6102675;23;20018;-79
2024/02/01 06:36:29;;;;;;;0.10;0.10;;;;;;;2.53;100.00;101984.56;6130552;23;20010;-78
2024/02/01 06:41:41;;;;;;;0.00;0.00;;;;;;;2.61;100.00;102003.44;6126141;23;20097;-80
2024/02/01 06:44:26;;;;;;;0.00;0.00;;;;;;;2.50;100.00;101992.16;6130108;23;20010;-80
2024/02/01 06:47:48;;;;;;;0.00;0.00;;;;;;;2.40;100.00;101973.47;6107234;23;20067;-82
2024/02/01 06:50:16;;;;;;;0.10;0.10;;;;;;;2.60;100.00;102012.56;6102205;23;20016;-81
2024/02/01 06:52:49;;;;;;;0.00;0.00;;;;;;;2.22;100.00;101957.47;6107519;23;20010;-79
2024/02/01 06:56:13;;;;;;;0.00;0.00;;;;;;;2.43;100.00;102002.81;6081909;23;20093;-80
2024/02/01 06:58:46;;;;;;;0.10;0.10;;;;;;;2.55;100.00;102025.72;6125753;23;20009;-83
2024/02/01 07:04:53;;;;;;;0.00;0.00;;;;;;;2.58;100.00;102046.97;6014443;23;20099;-77
2024/02/01 07:07:29;;;;;;;0.00;0.00;;;;;;;2.39;100.00;102015.81;5989417;23;20012;-75
2024/02/01 07:09:58;;;;;;;0.00;0.00;;;;;;;2.56;100.00;102050.88;6061309;23;20033;-79
2024/02/01 07:13:06;;;;;;;0.00;0.00;;;;;;;2.39;100.00;102026.59;6102294;23;20772;-77
2024/02/01 07:15:32;;;;;;;0.00;0.00;;;;;;;2.48;100.00;102046.34;6080317;23;20006;-76
2024/02/01 07:57:58;;;;;;;0.00;0.00;;;;;;;3.67;100.00;102143.69;6045331;23;20018;-77
2024/02/01 08:00:56;;;;;;;0.00;0.00;;;;;;;3.86;100.00;102131.56;6039871;23;20051;-77
2024/02/01 08:03:42;;;;;;;;;;;;;;;;;;;;;
2024/02/01 08:09:16;;;;;;;0.00;0.00;;;;;;;4.48;100.00;102137.81;6128582;23;20089;-78
2024/02/01 08:11:42;;;;;;;0.00;0.00;;;;;;;4.51;100.00;102124.78;6110573;23;20014;-77
2024/02/01 08:14:17;;;;;;;0.00;0.00;;;;;;;4.71;100.00;102146.72;6101457;23;20008;-79
2024/02/01 08:16:56;;;;;;;;;;;;;;;;;;;;;
2024/02/01 08:19:24;;;;;;;0.00;0.00;;;;;;;4.86;100.00;102125.09;6130001;23;20021;-78
2024/02/01 08:22:10;;;;;;;0.00;0.00;;;;;;;5.04;100.00;102149.09;6129024;23;20077;-76
2024/02/01 08:25:09;;;;;;;0.00;0.00;;;;;;;5.23;100.00;102176.72;6101338;23;20073;-78
2024/02/01 08:28:06;;;;;;;0.00;0.00;;;;;;;4.98;100.00;102128.19;6079247;23;20458;-78
2024/02/01 08:31:02;;;;;;;0.00;0.00;;;;;;;5.18;100.00;102141.16;6096142;23;20018;-78
2024/02/01 08:33:49;;;;;;;0.10;0.10;;;;;;;5.39;100.00;102134.97;6063543;23;20022;-77
2024/02/01 08:36:20;;;;;;;0.00;0.00;;;;;;;5.79;100.00;102172.59;6101492;23;20014;-77
2024/02/01 08:38:55;;;;;;;;;;;;;;;;;;;;;
2024/02/01 08:41:25;;;;;;;0.00;0.00;;;;;;;6.17;100.00;102166.97;6129637;23;20384;-78
2024/02/01 08:44:14;;;;;;;0.00;0.00;;;;;;;6.27;100.00;102170.22;6100506;23;20005;-77
2024/02/01 08:47:00;;;;;;;0.10;0.10;;;;;;;6.41;100.00;102169.28;6101431;23;20013;-79
2024/02/01 08:49:36;;;;;;;0.00;0.00;;;;;;;6.52;100.00;102164.38;6099491;23;20010;-77
2024/02/01 08:52:06;;;;;;;0.00;0.00;;;;;;;6.74;100.00;102176.03;6126998;23;20013;-77
2024/02/01 08:54:49;;;;;;;;;;;;;;;;;;;;;
2024/02/01 08:57:17;;;;;;;0.00;0.00;;;;;;;7.20;100.00;102199.16;6105011;23;20056;-77
2024/02/01 08:59:43;;;;;;;0.00;0.00;;;;;;;7.10;100.00;102173.16;6126799;23;20002;-77
2024/02/01 09:02:15;;;;;;;0.10;0.10;;;;;;;7.31;100.00;102202.13;6102491;23;20064;-76
2024/02/01 09:04:52;;;;;;;0.00;0.00;;;;;;;7.35;100.00;102183.53;6071730;23;20006;-78
2024/02/01 09:07:41;;;;;;;;;;;;;;;;;;;;;
2024/02/01 09:10:07;;;;;;;0.00;0.00;;;;;;;7.49;100.00;102189.88;6111437;23;20018;-77
2024/02/01 09:12:42;;;;;;;0.00;0.00;;;;;;;7.55;100.00;102166.44;6109179;23;20009;-77
2024/02/01 09:18:01;;;;;;;0.05;0.05;;;;;;;9.87;94.19;102161.09;6113210;23;20042;-77
2024/02/01 09:28:23;;;;;;;0.00;0.00;;;;;;;13.51;65.76;102192.75;5956458;24;19995;-77
2024/02/01 09:31:18;;;;;;;0.00;0.00;;;;;;;13.41;63.91;102180.47;5959211;24;20336;-79
2024/02/01 09:33:53;;;;;;;0.10;0.10;;;;;;;14.12;61.86;102193.97;6013442;23;20018;-80
2024/02/01 09:36:22;;;;;;;0.00;0.00;;;;;;;15.00;59.48;102220.25;5986703;23;20152;-79
2024/02/01 09:39:05;;;;;;;0.00;0.00;;;;;;;15.29;58.48;102223.69;6048814;23;20013;-78
2024/02/01 09:41:32;;;;;;;0.00;0.00;;;;;;;15.63;55.83;102220.81;6102008;23;20514;-79
2024/02/01 09:43:59;;;;;;;0.00;0.00;;;;;;;15.67;53.66;102199.09;6106700;23;20040;-79
2024/02/01 09:46:59;;;;;;;0.00;0.00;;;;;;;16.61;52.43;102256.97;6127424;23;20021;-76
2024/02/01 09:49:42;;;;;;;0.00;0.00;;;;;;;17.27;49.81;102246.47;6082923;23;20010;-76
2024/02/01 09:52:39;;;;;;;0.00;0.00;;;;;;;17.86;47.34;102208.56;6130385;23;20421;-77
2024/02/01 09:55:19;;;;;;;0.00;0.00;;;;;;;18.71;44.55;102228.66;6124364;23;20061;-79
2024/02/01 09:58:42;;;;;;;;;;;;;;;;;;;;;
2024/02/01 10:00:39;;;;;;;0.00;0.00;;;;;;;21.24;41.08;102265.19;6110666;23;20016;-77
2024/02/01 10:03:28;;;;;;;0.00;0.00;;;;;;;21.65;39.99;102250.81;6130560;23;20008;-79
2024/02/01 10:09:14;;;;;;;;;;;;;;;;;;;;;
2024/02/01 10:11:42;;;;;;;0.00;0.00;;;;;;;22.94;35.29;102232.19;6128308;23;20022;-79
2024/02/01 10:17:22;;;;;;;0.00;0.00;;;;;;;23.35;31.58;102270.56;6112364;23;20013;-77
2024/02/01 10:19:57;;;;;;;0.00;0.00;;;;;;;23.25;32.31;102279.94;6130150;23;20006;-78
2024/02/01 10:22:23;;;;;;;0.00;0.00;;;;;;;24.12;31.87;102287.69;6099348;23;20730;-79
2024/02/01 10:24:57;;;;;;;0.00;0.00;;;;;;;25.71;31.09;102280.88;6104435;23;20084;-79
2024/02/01 10:27:23;;;;;;;0.00;0.00;;;;;;;27.28;30.34;102256.78;6125083;23;20058;-78
2024/02/01 10:29:49;;;;;;;0.00;0.00;;;;;;;27.47;30.34;102282.50;6103442;23;20009;-78
2024/02/01 10:32:31;;;;;;;0.00;0.00;;;;;;;26.44;29.40;102257.09;6099305;23;20006;-80
2024/02/01 10:35:01;;;;;;;0.00;0.00;;;;;;;24.71;29.88;102259.78;6102091;23;20088;-79
2024/02/01 10:37:41;;;;;;;0.00;0.00;;;;;;;24.19;30.41;102274.94;6126260;23;20009;-78
2024/02/01 10:40:11;;;;;;;0.00;0.00;;;;;;;24.66;30.33;102304.66;6104425;23;20331;-78
2024/02/01 10:42:46;;;;;;;0.00;0.00;;;;;;;24.41;30.46;102287.31;6099239;23;20337;-78
2024/02/01 10:48:42;;;;;;;0.00;0.00;;;;;;;23.41;31.22;102280.47;6076071;23;20334;-77
2024/02/01 10:51:13;;;;;;;0.00;0.00;;;;;;;23.96;30.91;102317.94;6098270;23;20009;-77
2024/02/01 10:53:59;;;;;;;0.00;0.00;;;;;;;24.90;30.86;102305.16;6129392;23;20012;-78
2024/02/01 10:56:37;;;;;;;0.00;0.00;;;;;;;25.74;27.60;102313.03;6125784;23;19998;-78
2024/02/01 10:59:07;;;;;;;0.00;0.00;;;;;;;25.36;27.93;102313.53;6078996;23;20034;-76
2024/02/01 11:01:37;;;;;;;0.00;0.00;;;;;;;26.34;27.71;102324.75;6124154;23;20001;-76
2024/02/01 11:04:14;;;;;;;0.00;0.00;;;;;;;27.82;26.73;102318.06;6105595;23;20009;-77
2024/02/01 11:06:49;;;;;;;0.00;0.00;;;;;;;29.06;24.36;102328.88;6129924;23;20017;-77
2024/02/01 11:09:18;;;;;;;0.00;0.00;;;;;;;30.33;23.92;102322.63;6102884;23;19982;-77
2024/02/01 11:11:54;;;;;;;0.00;0.00;;;;;;;31.79;23.06;102310.06;6107205;23;20010;-77
2024/02/01 11:14:32;;;;;;;0.00;0.00;;;;;;;31.21;20.40;102319.09;6102336;23;20002;-77
2024/02/01 11:17:01;;;;;;;0.00;0.00;;;;;;;29.57;21.66;102308.06;6105762;23;20024;-76
2024/02/01 11:19:34;;;;;;;0.00;0.00;;;;;;;28.95;22.72;102322.00;6102619;23;20002;-74
2024/02/01 11:22:05;;;;;;;0.00;0.00;;;;;;;29.41;21.82;102314.41;6105357;23;20006;-75
2024/02/01 11:24:32;;;;;;;0.00;0.00;;;;;;;28.61;22.14;102309.94;6101819;23;20006;-77
2024/02/01 11:27:09;;;;;;;0.00;0.00;;;;;;;29.20;22.31;102305.19;6105691;23;20338;-76
2024/02/01 11:29:40;;;;;;;0.00;0.00;;;;;;;30.89;20.02;102292.78;6100827;23;20421;-77
2024/02/01 11:32:06;;;;;;;0.00;0.00;;;;;;;32.61;20.49;102306.63;6102687;23;20015;-77
2024/02/01 11:34:33;;;;;;;0.00;0.00;;;;;;;34.72;19.74;102284.91;6102258;23;20014;-77
2024/02/01 11:36:59;;;;;;;0.00;0.00;;;;;;;36.06;17.54;102272.63;6077188;23;20018;-77
2024/02/01 11:39:27;;;;;;;0.00;0.00;;;;;;;36.86;16.88;102306.75;6101002;23;20020;-77
2024/02/01 11:41:54;;;;;;;0.00;0.00;;;;;;;37.57;17.28;102297.84;6099502;23;20045;-76
2024/02/01 11:44:23;;;;;;;0.00;0.00;;;;;;;38.22;16.34;102287.91;6102068;23;20448;-77
2024/02/01 11:46:50;;;;;;;0.00;0.00;;;;;;;38.59;16.19;102271.41;6099813;23;20006;-77
2024/02/01 11:49:23;;;;;;;0.00;0.00;;;;;;;39.61;16.03;102278.00;6102807;23;19996;-76
2024/02/01 11:51:57;;;;;;;0.00;0.00;;;;;;;40.66;16.40;102266.09;6100348;23;20076;-76
2024/02/01 11:54:27;;;;;;;0.00;0.00;;;;;;;41.49;15.64;102282.78;6102366;23;19998;-77
2024/02/01 11:56:57;;;;;;;0.00;0.00;;;;;;;41.84;15.79;102286.25;6076870;23;20010;-77
2024/02/01 11:59:25;;;;;;;0.00;0.00;;;;;;;41.49;13.98;102282.78;6129242;23;20005;-77
2024/02/01 12:01:53;;;;;;;0.00;0.00;;;;;;;40.95;14.31;102288.63;6099798;23;20006;-76
2024/02/01 12:04:20;;;;;;;0.00;0.00;;;;;;;41.58;14.62;102279.34;6102137;23;20010;-76
2024/02/01 12:06:46;;;;;;;0.00;0.00;;;;;;;41.93;14.91;102282.78;6099190;23;20009;-77
2024/02/01 12:09:16;;;;;;;0.00;0.00;;;;;;;42.17;13.31;102266.31;6104003;23;20006;-76
2024/02/01 12:11:43;;;;;;;0.00;0.00;;;;;;;41.38;12.55;102267.81;6099050;23;20021;-76
2024/02/01 12:14:11;;;;;;;0.00;0.00;;;;;;;40.51;13.07;102241.75;6079079;23;20028;-76
2024/02/01 12:16:38;;;;;;;0.00;0.00;;;;;;;40.06;12.78;102266.47;6101399;23;20010;-77
2024/02/01 12:19:12;;;;;;;0.00;0.00;;;;;;;40.23;13.88;102261.78;6100444;23;19998;-76
2024/02/01 12:21:39;;;;;;;0.00;0.00;;;;;;;41.03;14.39;102260.63;6125788;23;20010;-76
2024/02/01 12:24:06;;;;;;;0.00;0.00;;;;;;;41.48;14.31;102248.78;6125226;23;20029;-76
2024/02/01 12:26:31;;;;;;;0.00;0.00;;;;;;;41.40;14.50;102253.84;6100815;23;19998;-76
2024/02/01 12:28:59;;;;;;;0.00;0.00;;;;;;;41.67;14.68;102270.16;6129266;23;20005;-76
2024/02/01 12:31:30;;;;;;;0.00;0.00;;;;;;;41.55;13.99;102250.69;6101524;23;20014;-77
2024/02/01 12:33:56;;;;;;;0.00;0.00;;;;;;;41.16;13.01;102248.06;6079900;23;20081;-74
2024/02/01 12:36:21;;;;;;;0.00;0.00;;;;;;;41.61;13.85;102237.47;6103020;23;20745;-76
2024/02/01 12:38:49;;;;;;;0.00;0.00;;;;;;;41.81;13.94;102241.19;6128063;23;20002;-76
2024/02/01 12:41:15;;;;;;;0.00;0.00;;;;;;;41.55;14.54;102244.94;6077977;23;20065;-76
2024/02/01 12:43:44;;;;;;;0.00;0.00;;;;;;;41.18;14.75;102222.66;6103804;23;20430;-76
2024/02/01 12:46:11;;;;;;;0.00;0.00;;;;;;;41.41;14.47;102229.63;6100854;23;20534;-77
2024/02/01 12:48:41;;;;;;;0.00;0.00;;;;;;;40.95;14.58;102209.13;6129162;23;20018;-75
2024/02/01 12:51:07;;;;;;;0.00;0.00;;;;;;;40.35;15.27;102210.84;6078699;23;20052;-76
2024/02/01 12:53:34;;;;;;;0.00;0.00;;;;;;;40.26;15.30;102219.97;6079060;23;20066;-76
2024/02/01 12:55:59;;;;;;;0.00;0.00;;;;;;;39.95;13.22;102222.81;6101629;23;20017;-76
2024/02/01 12:58:25;;;;;;;0.00;0.00;;;;;;;40.65;13.89;102225.16;6126161;23;20444;-76